createdAt,value
2022-08-11T05:34:15.499Z,174
2022-08-11T06:15:53.570Z,143
2022-08-11T06:16:58.348Z,142
2022-08-11T06:18:03.990Z,129
2022-08-11T06:19:11.680Z,132
2022-08-11T06:20:20.707Z,133
2022-08-11T06:21:27.215Z,128
2022-08-11T06:22:31.918Z,119
2022-08-11T06:23:36.469Z,121
2022-08-11T06:24:40.466Z,105
2022-08-11T06:25:45.684Z,101
2022-08-11T06:27:11.046Z,95
2022-08-11T06:27:58.726Z,90
2022-08-11T06:29:06.268Z,89
2022-08-11T06:30:13.790Z,89
2022-08-11T06:31:18.646Z,84
2022-08-11T06:32:25.607Z,76
2022-08-11T06:33:29.764Z,73
2022-08-11T06:34:40.754Z,66
2022-08-11T06:35:55.174Z,64
2022-08-11T06:37:07.297Z,58
2022-08-11T06:38:25.546Z,57
2022-08-11T06:39:37.875Z,64
2022-08-11T06:40:45.127Z,64
2022-08-11T06:41:52.040Z,54
2022-08-11T06:43:07.974Z,63
2022-08-11T06:44:17.723Z,53
2022-08-11T06:45:25.054Z,45
2022-08-11T06:46:34.470Z,40
2022-08-11T06:47:38.867Z,45
2022-08-11T06:48:43.159Z,52
2022-08-11T06:49:47.918Z,51
2022-08-11T06:50:57.969Z,40
2022-08-11T06:52:07.722Z,34
2022-08-11T06:53:12.359Z,28
2022-08-11T06:54:16.942Z,33
2022-08-11T06:55:56.452Z,41
2022-08-11T06:56:30.900Z,46
2022-08-11T06:57:40.404Z,39
2022-08-11T06:58:50.154Z,36
2022-08-11T07:01:13.289Z,34
2022-08-11T07:02:20.342Z,36
2022-08-11T07:03:32.922Z,41
2022-08-11T07:04:39.042Z,34
2022-08-11T07:05:56.667Z,44
2022-08-11T07:07:06.318Z,37
2022-08-11T07:08:33.323Z,43
2022-08-11T07:09:45.562Z,33
2022-08-11T07:11:05.966Z,46
2022-08-11T07:12:25.594Z,35
2022-08-11T07:13:45.179Z,39
2022-08-11T07:14:52.440Z,51
2022-08-11T07:16:11.940Z,50
2022-08-11T07:17:11.051Z,33
2022-08-11T07:18:15.536Z,32
2022-08-11T07:19:25.047Z,32
2022-08-11T07:20:34.383Z,38
2022-08-11T07:22:02.165Z,33
2022-08-11T07:22:53.454Z,36
2022-08-11T07:24:03.026Z,34
2022-08-11T07:26:26.114Z,46
2022-08-11T07:27:37.355Z,35
2022-08-11T07:28:45.007Z,39
2022-08-11T07:29:54.991Z,34
2022-08-11T07:30:59.566Z,32
2022-08-11T07:32:09.788Z,34
2022-08-11T07:34:06.235Z,27
2022-08-11T07:34:19.015Z,31
2022-08-11T07:35:26.463Z,35
2022-08-11T07:36:36.550Z,34
2022-08-11T07:38:45.074Z,33
2022-08-11T07:39:48.808Z,27
2022-08-11T07:40:53.283Z,37
2022-08-11T07:41:57.769Z,50
2022-08-11T07:43:02.171Z,46
2022-08-11T07:44:07.491Z,55
2022-08-11T07:45:12.218Z,56
2022-08-11T07:46:21.881Z,34
2022-08-11T07:47:31.270Z,31
2022-08-11T07:48:40.842Z,31
2022-08-11T07:49:50.386Z,27
2022-08-11T07:50:59.851Z,29
2022-08-11T07:52:09.486Z,36
2022-08-11T07:53:18.843Z,35
2022-08-11T07:54:23.110Z,38
2022-08-11T07:55:49.379Z,34
2022-08-11T07:56:37.105Z,28
2022-08-11T07:57:48.257Z,47
2022-08-11T07:58:52.520Z,43
2022-08-11T08:00:00.727Z,40
2022-08-11T08:01:10.367Z,47
2022-08-11T08:02:15.317Z,63
2022-08-11T08:03:24.563Z,63
2022-08-11T08:04:34.019Z,48
2022-08-11T08:05:43.510Z,32
2022-08-11T08:06:53.045Z,36
2022-08-11T08:08:02.394Z,28
2022-08-11T08:09:12.043Z,31
2022-08-11T08:10:21.622Z,32
2022-08-11T08:11:31.366Z,31
2022-08-11T08:12:40.785Z,31
2022-08-11T08:13:50.534Z,36
2022-08-11T08:15:01.043Z,35
2022-08-11T08:16:10.223Z,39
2022-08-11T08:17:20.022Z,39
2022-08-11T08:19:35.499Z,30
2022-08-11T08:20:39.988Z,34
2022-08-11T08:21:47.058Z,45
2022-08-11T08:22:51.643Z,35
2022-08-11T08:23:56.210Z,25
2022-08-11T08:25:00.710Z,35
2022-08-11T08:26:05.279Z,27
2022-08-11T08:27:09.999Z,41
2022-08-11T08:28:14.782Z,37
2022-08-11T08:29:19.161Z,26
2022-08-11T08:30:28.616Z,33
2022-08-11T08:31:37.973Z,33
2022-08-11T08:32:42.470Z,31
2022-08-11T08:33:46.910Z,32
2022-08-11T08:34:51.282Z,38
2022-08-11T08:35:55.956Z,37
2022-08-11T08:37:15.563Z,32
2022-08-11T08:38:09.784Z,40
2022-08-11T08:39:14.319Z,36
2022-08-11T08:40:21.560Z,31
2022-08-11T08:41:26.650Z,28
2022-08-11T08:42:31.075Z,32
2022-08-11T08:43:47.532Z,37
2022-08-11T08:44:41.300Z,32
2022-08-11T08:45:45.306Z,40
2022-08-11T08:46:50.391Z,43
2022-08-11T08:47:54.844Z,35
2022-08-11T08:48:59.130Z,37
2022-08-11T08:50:04.062Z,29
2022-08-11T08:51:11.262Z,27
2022-08-11T08:52:26.093Z,42
2022-08-11T08:53:25.274Z,47
2022-08-11T08:54:32.327Z,43
2022-08-11T08:55:36.798Z,41
2022-08-11T08:56:41.426Z,39
2022-08-11T08:57:45.859Z,39
2022-08-11T08:58:51.556Z,36
2022-08-11T08:59:54.941Z,39
2022-08-11T09:00:59.346Z,30
2022-08-11T09:02:03.554Z,44
2022-08-11T09:03:23.146Z,43
2022-08-11T09:04:15.280Z,36
2022-08-11T09:05:17.574Z,49
2022-08-11T09:06:22.040Z,45
2022-08-11T09:07:26.346Z,43
2022-08-11T09:08:31.298Z,35
2022-08-11T09:09:35.550Z,41
2022-08-11T09:10:50.142Z,51
2022-08-11T09:12:00.078Z,47
2022-08-11T09:13:04.650Z,49
2022-08-11T09:14:12.947Z,49
2022-08-11T09:16:17.406Z,53
2022-08-11T09:17:21.674Z,48
2022-08-11T09:18:28.353Z,53
2022-08-11T09:19:30.631Z,44
2022-08-11T09:20:35.143Z,38
2022-08-11T09:21:48.670Z,44
2022-08-11T09:22:46.798Z,60
2022-08-11T09:24:10.043Z,40
2022-08-11T09:25:08.883Z,25
2022-08-11T09:26:18.500Z,31
2022-08-11T09:27:27.872Z,40
2022-08-11T09:28:32.241Z,44
2022-08-11T09:29:37.420Z,60
2022-08-11T09:30:41.690Z,43
2022-08-11T09:31:46.007Z,40
2022-08-11T09:32:50.586Z,35
2022-08-11T09:33:55.039Z,35
2022-08-11T09:34:59.502Z,36
2022-08-11T09:36:04.026Z,42
2022-08-11T09:37:13.562Z,25
2022-08-11T09:38:23.319Z,30
2022-08-11T09:39:33.072Z,34
2022-08-11T09:40:42.430Z,28
2022-08-11T09:41:55.903Z,35
2022-08-11T09:42:51.606Z,36
2022-08-11T09:45:09.819Z,44
2022-08-11T09:46:14.846Z,38
2022-08-11T09:47:19.418Z,42
2022-08-11T09:48:26.589Z,35
2022-08-11T09:49:35.314Z,41
2022-08-11T09:50:39.678Z,43
2022-08-11T09:53:18.514Z,50
2022-08-11T09:54:03.075Z,53
2022-08-11T09:55:02.308Z,47
2022-08-11T09:56:06.822Z,54
2022-08-11T09:57:16.033Z,52
2022-08-11T09:58:33.827Z,48
2022-08-11T09:59:29.727Z,54
2022-08-11T10:00:33.991Z,47
2022-08-11T10:01:38.318Z,53
2022-08-11T10:02:45.348Z,60
2022-08-11T10:03:49.586Z,67
2022-08-11T10:04:57.329Z,65
2022-08-11T10:06:05.902Z,69
2022-08-11T10:07:11.254Z,71
2022-08-11T10:08:15.676Z,87
2022-08-11T10:09:20.338Z,79
2022-08-11T10:10:24.714Z,82
2022-08-11T10:11:29.090Z,97
2022-08-11T10:12:33.313Z,94
2022-08-11T10:13:43.784Z,91
2022-08-11T10:14:44.616Z,72
2022-08-11T10:15:59.925Z,61
2022-08-11T10:16:58.623Z,63
2022-08-11T10:18:06.059Z,60
2022-08-11T10:19:15.909Z,66
2022-08-11T10:20:25.346Z,82
2022-08-11T10:21:25.042Z,92
2022-08-11T10:22:34.614Z,92
2022-08-11T10:24:00.766Z,83
2022-08-11T10:24:54.025Z,73
2022-08-11T10:26:03.514Z,81
2022-08-11T10:27:13.619Z,76
2022-08-11T10:28:33.291Z,76
2022-08-11T10:29:22.262Z,75
2022-08-11T10:30:32.241Z,66
2022-08-11T10:31:45.208Z,71
2022-08-11T10:32:58.186Z,83
2022-08-11T10:34:05.990Z,87
2022-08-11T10:35:10.269Z,72
2022-08-11T10:36:17.469Z,70
2022-08-11T10:38:05.720Z,63
2022-08-11T10:38:32.070Z,52
2022-08-11T10:39:36.435Z,52
2022-08-11T10:40:40.773Z,60
2022-08-11T10:42:03.556Z,42
2022-08-11T10:43:00.203Z,25
2022-08-11T10:44:04.725Z,28
2022-08-11T10:45:09.073Z,32
2022-08-11T10:46:18.449Z,29
2022-08-11T10:47:28.089Z,39
2022-08-11T10:48:37.454Z,34
2022-08-11T10:49:41.929Z,31
2022-08-11T10:50:46.425Z,36
2022-08-11T10:51:58.590Z,41
2022-08-11T10:53:06.963Z,41
2022-08-11T10:54:18.030Z,41
2022-08-11T10:55:28.733Z,43
2022-08-11T10:56:38.222Z,37
2022-08-11T10:58:04.090Z,30
2022-08-11T10:58:59.605Z,39
2022-08-11T11:00:01.417Z,34
2022-08-11T11:01:06.252Z,39
2022-08-11T11:02:10.749Z,46
2022-08-11T11:03:22.524Z,43
2022-08-11T11:04:19.437Z,35
2022-08-11T11:05:29.037Z,27
2022-08-11T11:06:33.670Z,27
2022-08-11T11:07:49.401Z,28
2022-08-11T11:08:55.582Z,33
2022-08-11T11:10:04.793Z,34
2022-08-11T11:11:12.169Z,39
2022-08-11T11:12:16.968Z,36
2022-08-11T11:13:26.761Z,44
2022-08-11T11:14:36.329Z,55
2022-08-11T11:15:46.317Z,53
2022-08-11T11:16:55.737Z,51
2022-08-11T11:18:07.993Z,61
2022-08-11T11:19:12.660Z,56
2022-08-11T11:20:34.809Z,56
2022-08-11T11:21:26.587Z,56
2022-08-11T11:22:31.661Z,67
2022-08-11T11:24:42.645Z,51
2022-08-11T11:25:47.017Z,50
2022-08-11T11:26:54.037Z,69
2022-08-11T11:28:11.278Z,74
2022-08-11T11:29:15.843Z,76
2022-08-11T11:30:20.141Z,77
2022-08-11T11:31:26.909Z,77
2022-08-11T11:32:36.140Z,79
2022-08-11T11:34:56.085Z,65
2022-08-11T11:36:12.101Z,60
2022-08-11T11:37:16.748Z,55
2022-08-11T11:38:21.149Z,49
2022-08-11T11:39:25.508Z,47
2022-08-11T11:40:31.596Z,50
2022-08-11T11:41:35.293Z,51
2022-08-11T11:42:40.139Z,51
2022-08-11T11:43:46.759Z,51
2022-08-11T11:44:54.230Z,53
2022-08-11T11:45:55.973Z,56
2022-08-11T11:47:00.297Z,46
2022-08-11T11:48:04.340Z,63
2022-08-11T11:49:10.690Z,65
2022-08-11T11:50:12.864Z,54
2022-08-11T11:51:17.029Z,57
2022-08-11T11:52:21.528Z,61
2022-08-11T11:53:28.465Z,64
2022-08-11T11:54:32.692Z,64
2022-08-11T11:55:38.919Z,76
2022-08-11T11:56:43.357Z,71
2022-08-11T11:57:58.851Z,63
2022-08-11T11:58:58.305Z,73
2022-08-11T12:00:08.513Z,77
2022-08-11T12:01:18.499Z,83
2022-08-11T12:02:40.087Z,81
2022-08-11T12:03:48.217Z,98
2022-08-11T12:04:56.576Z,94
2022-08-11T12:06:02.977Z,86
2022-08-11T12:07:07.682Z,92
2022-08-11T12:08:17.278Z,81
2022-08-11T12:09:22.053Z,77
2022-08-11T12:10:32.634Z,88
2022-08-11T12:11:40.012Z,81
2022-08-11T12:12:50.353Z,74
2022-08-11T12:14:02.475Z,68
2022-08-11T12:15:06.678Z,49
2022-08-11T12:16:32.537Z,32
2022-08-11T12:17:15.925Z,46
2022-08-11T12:18:20.682Z,63
2022-08-11T12:19:26.737Z,69
2022-08-11T12:21:34.865Z,70
2022-08-11T12:22:39.172Z,66
2022-08-11T12:23:48.506Z,56
2022-08-11T12:24:57.909Z,47
2022-08-11T12:26:26.197Z,59
2022-08-11T12:27:17.925Z,65
2022-08-11T12:28:23.913Z,85
2022-08-11T12:29:28.378Z,80
2022-08-11T12:30:32.816Z,79
2022-08-11T12:31:37.457Z,68
2022-08-11T12:32:42.109Z,76
2022-08-11T12:33:46.461Z,73
2022-08-11T12:34:51.042Z,69
2022-08-11T12:36:00.873Z,70
2022-08-11T12:37:00.765Z,69
2022-08-11T12:38:10.013Z,63
2022-08-11T12:39:11.360Z,66
2022-08-11T12:40:42.395Z,50
2022-08-11T12:41:24.834Z,51
2022-08-11T12:42:34.189Z,57
2022-08-11T12:43:43.501Z,52
2022-08-11T12:44:53.383Z,41
2022-08-11T12:46:03.030Z,43
2022-08-11T12:47:07.358Z,48
2022-08-11T12:49:00.216Z,50
2022-08-11T12:49:21.521Z,49
2022-08-11T12:50:30.977Z,54
2022-08-11T12:52:01.115Z,55
2022-08-11T12:52:49.949Z,53
2022-08-11T12:53:54.375Z,58
2022-08-11T12:55:03.993Z,47
2022-08-11T12:56:08.613Z,42
2022-08-11T12:57:24.138Z,69
2022-08-11T12:58:35.502Z,66
2022-08-11T12:59:40.114Z,73
2022-08-11T13:00:49.552Z,77
2022-08-11T13:01:59.023Z,71
2022-08-11T13:03:08.409Z,69
2022-08-11T13:04:17.990Z,69
2022-08-11T13:05:27.457Z,79
2022-08-11T13:06:32.518Z,75
2022-08-11T13:07:36.882Z,79
2022-08-11T13:08:44.286Z,81
2022-08-11T13:09:48.482Z,79
2022-08-11T13:10:52.623Z,85
2022-08-11T13:12:02.526Z,94
2022-08-11T13:13:26.839Z,86
2022-08-11T13:14:16.413Z,100
2022-08-11T13:15:20.678Z,95
2022-08-11T13:16:25.022Z,93
2022-08-11T13:17:40.369Z,78
2022-08-11T13:18:36.937Z,97
2022-08-11T13:19:42.614Z,117
2022-08-11T13:20:47.174Z,101
2022-08-11T13:21:54.554Z,98
2022-08-11T13:22:59.121Z,96
2022-08-11T13:24:03.728Z,117
2022-08-11T13:25:07.774Z,114
2022-08-11T13:26:12.617Z,104
2022-08-11T13:27:17.062Z,104
2022-08-11T13:28:21.683Z,107
2022-08-11T13:29:26.033Z,108
2022-08-11T13:31:38.703Z,86
2022-08-11T13:32:42.933Z,86
2022-08-11T13:33:47.122Z,81
2022-08-11T13:34:52.347Z,81
2022-08-11T13:35:56.671Z,78
2022-08-11T13:37:01.094Z,71
2022-08-11T13:38:18.079Z,70
2022-08-11T13:39:09.913Z,77
2022-08-11T13:40:14.568Z,72
2022-08-11T13:41:18.674Z,68
2022-08-11T13:42:28.743Z,65
2022-08-11T13:43:33.062Z,68
2022-08-11T13:44:37.483Z,73
2022-08-11T13:45:41.725Z,79
2022-08-11T13:46:46.097Z,71
2022-08-11T13:47:50.721Z,71
2022-08-11T13:48:56.163Z,64
2022-08-11T13:49:59.374Z,74
2022-08-11T13:51:04.104Z,82
2022-08-11T13:52:14.610Z,82
2022-08-11T13:53:19.197Z,80
2022-08-11T13:54:23.561Z,90
2022-08-11T13:55:33.202Z,86
2022-08-11T13:56:36.303Z,103
2022-08-11T13:58:06.948Z,105
2022-08-11T13:58:53.905Z,100
2022-08-11T13:59:52.972Z,95
2022-08-11T14:00:57.226Z,91
2022-08-11T14:02:04.420Z,121
2022-08-11T14:03:06.747Z,106
2022-08-11T14:04:28.575Z,106
2022-08-11T14:05:15.301Z,96
2022-08-11T14:06:19.576Z,78
2022-08-11T14:07:24.459Z,94
2022-08-11T14:08:31.734Z,97
2022-08-11T14:09:33.077Z,88
2022-08-11T14:10:38.125Z,89
2022-08-11T14:12:20.911Z,84
2022-08-11T14:12:52.537Z,111
2022-08-11T14:14:01.965Z,117
2022-08-11T14:15:08.534Z,116
2022-08-11T14:16:13.446Z,103
2022-08-11T14:17:36.186Z,96
2022-08-11T14:18:21.941Z,101
2022-08-11T14:19:32.013Z,96
2022-08-11T14:20:41.446Z,93
2022-08-11T14:21:54.170Z,86
2022-08-11T14:23:03.133Z,85
2022-08-11T14:25:11.515Z,64
2022-08-11T14:26:16.198Z,70
2022-08-11T14:27:39.057Z,74
2022-08-11T14:28:34.286Z,83
2022-08-11T14:29:34.674Z,69
2022-08-11T14:30:39.154Z,83
2022-08-11T14:31:48.719Z,96
2022-08-11T14:32:55.632Z,106
2022-08-11T14:33:59.131Z,107
2022-08-11T14:36:06.053Z,107
2022-08-11T14:37:10.337Z,94
2022-08-11T14:38:14.773Z,97
2022-08-11T14:39:24.168Z,94
2022-08-11T14:40:31.767Z,90
2022-08-11T14:41:38.161Z,73
2022-08-11T14:42:47.462Z,68
2022-08-11T14:44:10.550Z,65
2022-08-11T14:45:07.349Z,74
2022-08-11T14:46:16.895Z,68
2022-08-11T14:47:26.442Z,83
2022-08-11T14:48:31.903Z,110
2022-08-11T14:49:36.576Z,134
2022-08-11T14:50:40.813Z,158
2022-08-11T14:51:47.036Z,182
2022-08-11T14:52:50.160Z,181
2022-08-11T14:53:58.618Z,186
2022-08-11T14:54:59.279Z,193
2022-08-11T14:56:09.226Z,202
2022-08-11T14:57:18.793Z,196
2022-08-11T14:58:24.086Z,207
2022-08-11T14:59:28.665Z,202
2022-08-11T15:00:33.582Z,211
2022-08-11T15:01:38.468Z,214
2022-08-11T15:02:47.952Z,220
2022-08-11T15:04:01.240Z,229
2022-08-11T15:05:01.925Z,221
2022-08-11T15:06:09.037Z,227
2022-08-11T15:07:16.689Z,222
2022-08-11T15:08:18.476Z,236
2022-08-11T15:09:22.886Z,239
2022-08-11T15:10:27.221Z,235
2022-08-11T15:11:32.077Z,239
2022-08-11T15:12:41.626Z,239
2022-08-11T15:13:46.206Z,235
2022-08-11T15:14:55.803Z,231
2022-08-11T15:16:03.863Z,222
2022-08-11T15:17:09.278Z,221
2022-08-11T15:18:13.453Z,215
2022-08-11T15:19:17.773Z,210
2022-08-11T15:20:28.276Z,213
2022-08-11T15:21:37.960Z,210
2022-08-11T15:22:47.256Z,216
2022-08-11T15:23:56.807Z,223
2022-08-11T15:25:06.489Z,215
2022-08-11T15:26:10.828Z,230
2022-08-11T15:27:18.683Z,224
2022-08-11T15:28:28.336Z,226
2022-08-11T15:29:40.380Z,218
2022-08-11T15:30:49.905Z,216
2022-08-11T15:31:59.232Z,211
2022-08-11T15:33:08.940Z,208
2022-08-11T15:34:18.628Z,201
2022-08-11T15:35:28.116Z,201
2022-08-11T15:36:37.552Z,196
2022-08-11T15:37:48.576Z,204
2022-08-11T15:38:55.102Z,200
2022-08-11T15:40:02.414Z,199
2022-08-11T15:41:16.784Z,197
2022-08-11T15:42:26.208Z,196
2022-08-11T15:43:38.844Z,205
2022-08-11T15:45:02.451Z,197
2022-08-11T15:46:03.460Z,196
2022-08-11T15:47:08.116Z,196
2022-08-11T15:48:12.427Z,184
2022-08-11T15:49:22.354Z,187
2022-08-11T15:50:31.721Z,189
2022-08-11T15:51:36.081Z,179
2022-08-11T15:52:43.488Z,184
2022-08-11T15:53:53.210Z,179
2022-08-11T15:55:00.448Z,175
2022-08-11T15:56:04.937Z,175
2022-08-11T15:57:09.107Z,174
2022-08-11T15:58:18.067Z,163
2022-08-11T15:59:41.270Z,148
2022-08-11T16:00:37.073Z,150
2022-08-11T16:01:46.562Z,155
2022-08-11T16:02:55.825Z,159
2022-08-11T16:04:07.016Z,156
2022-08-11T16:05:12.732Z,146
2022-08-11T16:06:17.019Z,149
2022-08-11T16:07:21.401Z,146
2022-08-11T16:08:32.626Z,140
2022-08-11T16:09:37.576Z,139
2022-08-11T16:10:40.758Z,147
2022-08-11T16:11:45.941Z,137
2022-08-11T16:12:50.315Z,132
2022-08-11T16:14:02.335Z,133
2022-08-11T16:15:11.728Z,127
2022-08-11T16:16:21.323Z,126
2022-08-11T16:17:26.124Z,117
2022-08-11T16:18:30.884Z,121
2022-08-11T16:19:41.079Z,106
2022-08-11T16:20:45.577Z,107
2022-08-11T16:21:52.754Z,103
2022-08-11T16:23:01.632Z,104
2022-08-11T16:24:01.820Z,98
2022-08-11T16:25:58.971Z,106
2022-08-11T16:27:06.364Z,104
2022-08-11T16:27:15.053Z,103
2022-08-11T16:28:19.852Z,105
2022-08-11T16:29:24.632Z,108
2022-08-11T16:30:28.891Z,105
2022-08-11T16:31:33.327Z,107
2022-08-11T16:32:38.107Z,111
2022-08-11T16:33:50.894Z,108
2022-08-11T16:34:46.964Z,101
2022-08-11T16:35:59.216Z,101
2022-08-11T16:37:08.952Z,95
2022-08-11T16:38:18.472Z,97
2022-08-11T16:39:28.166Z,93
2022-08-11T16:40:32.873Z,90
2022-08-11T16:41:37.333Z,85
2022-08-11T16:42:59.765Z,82
2022-08-11T16:43:56.108Z,74
2022-08-11T16:45:05.389Z,62
2022-08-11T16:46:14.823Z,71
2022-08-11T16:48:02.442Z,64
2022-08-11T16:48:33.289Z,62
2022-08-11T16:49:34.854Z,74
2022-08-11T16:50:41.243Z,69
2022-08-11T16:51:45.431Z,65
2022-08-11T16:52:49.804Z,71
2022-08-11T16:54:00.302Z,78
2022-08-11T16:54:58.648Z,68
2022-08-11T16:56:03.062Z,69
2022-08-11T16:57:15.776Z,59
2022-08-11T16:58:16.912Z,59
2022-08-11T16:59:26.291Z,58
2022-08-11T17:00:30.833Z,47
2022-08-11T17:01:35.344Z,51
2022-08-11T17:02:39.752Z,49
2022-08-11T17:03:52.163Z,47
2022-08-11T17:05:01.668Z,48
2022-08-11T17:06:16.211Z,34
2022-08-11T17:07:23.338Z,40
2022-08-11T17:08:29.901Z,32
2022-08-11T17:09:39.327Z,35
2022-08-11T17:10:52.257Z,41
2022-08-11T17:12:03.155Z,34
2022-08-11T17:13:12.587Z,32
2022-08-11T17:14:17.083Z,34
2022-08-11T17:15:24.167Z,41
2022-08-11T17:16:33.931Z,41
2022-08-11T17:17:38.323Z,38
2022-08-11T17:18:43.528Z,43
2022-08-11T17:20:59.081Z,38
2022-08-11T17:22:03.499Z,38
2022-08-11T17:23:12.918Z,39
2022-08-11T17:24:22.259Z,34
2022-08-11T17:25:26.465Z,39
2022-08-11T17:26:30.756Z,36
2022-08-11T17:28:46.976Z,50
2022-08-11T17:29:53.410Z,51
2022-08-11T17:30:55.896Z,47
2022-08-11T17:32:05.622Z,54
2022-08-11T17:33:14.971Z,61
2022-08-11T17:34:24.387Z,55
2022-08-11T17:35:33.898Z,62
2022-08-11T17:36:40.416Z,60
2022-08-11T17:37:43.359Z,63
2022-08-11T17:38:47.731Z,62
2022-08-11T17:39:52.123Z,57
2022-08-11T17:40:56.715Z,51
2022-08-11T17:42:06.319Z,51
2022-08-11T17:43:16.022Z,54
2022-08-11T17:44:25.416Z,58
2022-08-11T17:45:34.943Z,49
2022-08-11T17:46:44.339Z,58
2022-08-11T17:47:53.875Z,58
2022-08-11T17:49:03.599Z,59
2022-08-11T17:50:09.067Z,50
2022-08-11T17:51:12.699Z,52
2022-08-11T17:52:20.172Z,63
2022-08-11T17:53:29.761Z,56
2022-08-11T17:54:41.968Z,55
2022-08-11T17:55:53.340Z,56
2022-08-11T17:57:00.596Z,61
2022-08-11T17:58:10.259Z,52
2022-08-11T17:59:19.812Z,58
2022-08-11T18:00:29.575Z,55
2022-08-11T18:01:34.100Z,52
2022-08-11T18:02:38.370Z,54
2022-08-11T18:03:53.195Z,58
2022-08-11T18:04:53.291Z,53
2022-08-11T18:05:57.659Z,54
2022-08-11T18:07:06.258Z,48
2022-08-11T18:08:15.619Z,49
2022-08-11T18:09:25.012Z,45
2022-08-11T18:10:38.067Z,39
2022-08-11T18:12:00.139Z,37
2022-08-11T18:12:54.083Z,36
2022-08-11T18:15:14.281Z,36
2022-08-11T18:16:23.991Z,32
2022-08-11T18:17:35.933Z,36
2022-08-11T18:18:45.575Z,34
2022-08-11T18:19:54.920Z,38
2022-08-11T18:21:21.279Z,35
2022-08-11T18:22:30.795Z,43
2022-08-11T18:23:46.461Z,34
2022-08-11T18:24:50.496Z,40
2022-08-11T18:26:15.755Z,34
2022-08-11T18:27:35.091Z,42
2022-08-11T18:29:12.155Z,44
2022-08-11T18:30:21.258Z,41
2022-08-11T18:31:36.674Z,42
2022-08-11T18:32:50.841Z,36
2022-08-11T18:34:08.286Z,40
2022-08-11T18:35:09.380Z,37
2022-08-11T18:36:26.943Z,41
2022-08-11T18:37:39.395Z,35
2022-08-11T18:38:55.711Z,29
2022-08-11T18:40:05.052Z,35
2022-08-11T18:41:25.325Z,42
2022-08-11T18:42:49.642Z,40
2022-08-11T18:44:10.372Z,36
2022-08-11T18:45:19.551Z,42
2022-08-11T18:46:29.195Z,33
2022-08-11T18:47:55.524Z,35
2022-08-11T18:49:25.015Z,33
2022-08-11T18:50:40.062Z,34
2022-08-11T18:51:49.495Z,38
2022-08-11T18:52:58.803Z,37
2022-08-11T18:54:08.363Z,32
2022-08-11T18:55:17.972Z,44
2022-08-11T18:56:29.025Z,42
2022-08-11T18:57:47.116Z,43
2022-08-11T18:58:48.736Z,47
2022-08-11T18:59:58.052Z,45
2022-08-11T19:01:07.798Z,47
2022-08-11T19:02:17.159Z,46
2022-08-11T19:03:26.519Z,47
2022-08-11T19:04:37.647Z,44
2022-08-11T19:06:05.506Z,42
2022-08-11T19:06:54.736Z,48
2022-08-11T19:08:10.063Z,49
2022-08-11T19:09:19.832Z,54
2022-08-11T19:10:30.299Z,60
2022-08-11T19:11:57.145Z,55
2022-08-11T19:13:11.245Z,53
2022-08-11T19:14:20.817Z,61
2022-08-11T19:15:32.444Z,62
2022-08-11T19:16:48.971Z,70
2022-08-11T19:17:58.379Z,72
2022-08-11T19:19:17.764Z,71
2022-08-11T19:20:34.020Z,72
2022-08-11T19:21:44.687Z,82
2022-08-11T19:22:54.208Z,87
2022-08-11T19:24:14.572Z,92
2022-08-11T19:25:34.019Z,97
2022-08-11T19:26:46.272Z,92
2022-08-11T19:27:56.681Z,89
2022-08-11T19:30:02.446Z,90
2022-08-11T19:30:22.675Z,94
2022-08-11T19:31:32.065Z,88
2022-08-11T19:33:03.361Z,87
2022-08-11T19:34:19.570Z,89
2022-08-11T19:35:29.968Z,84
2022-08-11T19:36:39.571Z,83
2022-08-11T19:37:48.930Z,75
2022-08-11T19:38:57.984Z,79
2022-08-11T19:40:07.211Z,80
2022-08-11T19:41:51.962Z,72
2022-08-11T19:42:31.093Z,79
2022-08-11T19:43:41.552Z,79
2022-08-11T19:44:55.048Z,83
2022-08-11T19:46:04.335Z,84
2022-08-11T19:47:13.583Z,85
2022-08-11T19:48:31.535Z,85
2022-08-11T19:49:34.179Z,87
2022-08-11T19:50:45.776Z,89
2022-08-11T19:51:55.153Z,90
2022-08-11T19:53:17.906Z,84
2022-08-11T19:54:27.236Z,86
2022-08-11T19:55:36.528Z,82
2022-08-11T19:56:46.980Z,83
2022-08-11T19:59:40.443Z,80
2022-08-11T20:00:49.676Z,81
2022-08-11T20:02:13.998Z,71
2022-08-11T20:03:13.264Z,75
2022-08-11T20:04:24.095Z,75
2022-08-11T20:06:03.608Z,76
2022-08-11T20:07:24.012Z,76
2022-08-11T20:08:33.312Z,81
2022-08-11T20:10:01.090Z,75
2022-08-11T20:12:48.329Z,79
2022-08-11T20:13:57.591Z,79
2022-08-11T20:15:09.040Z,78
2022-08-11T20:16:23.036Z,76
2022-08-11T20:17:32.426Z,79
2022-08-11T20:20:20.776Z,79
2022-08-11T20:21:30.275Z,79
2022-08-11T20:24:39.371Z,77
2022-08-11T20:25:48.558Z,76
2022-08-11T20:26:58.289Z,76
2022-08-11T20:28:27.420Z,81
2022-08-11T20:29:44.517Z,79
2022-08-11T20:30:53.346Z,76
2022-08-11T20:32:04.286Z,79
2022-08-11T20:33:33.045Z,74
2022-08-11T20:34:52.995Z,77
2022-08-11T20:36:22.708Z,79
2022-08-11T20:37:32.248Z,82
2022-08-11T20:40:23.465Z,81
2022-08-11T20:41:49.328Z,82
2022-08-11T20:42:47.549Z,89
2022-08-11T20:45:38.063Z,83
2022-08-11T20:46:48.909Z,89
2022-08-11T20:47:59.972Z,89
2022-08-11T20:49:23.768Z,86
2022-08-11T20:50:49.108Z,87
2022-08-11T20:51:59.479Z,96
2022-08-11T20:53:08.564Z,103
2022-08-11T20:54:38.050Z,102
2022-08-11T20:55:46.029Z,98
2022-08-11T20:56:51.612Z,102
2022-08-11T20:58:04.840Z,107
2022-08-11T20:59:21.709Z,107
2022-08-11T21:00:41.773Z,110
2022-08-11T21:02:21.147Z,108
2022-08-11T21:03:35.998Z,108
2022-08-11T21:04:53.861Z,111
2022-08-11T21:06:05.538Z,110
2022-08-11T21:07:05.539Z,113
2022-08-11T21:08:17.356Z,123
2022-08-11T21:09:58.127Z,126
2022-08-11T21:10:50.503Z,127
2022-08-11T21:11:57.568Z,124
2022-08-11T21:13:24.421Z,123
2022-08-11T21:14:17.212Z,123
2022-08-11T21:15:38.718Z,124
2022-08-11T21:16:36.131Z,120
2022-08-11T21:18:00.487Z,124
2022-08-11T21:18:58.572Z,125
2022-08-11T21:20:15.675Z,121
2022-08-11T21:21:44.654Z,126
2022-08-11T21:22:58.867Z,123
2022-08-11T21:24:00.584Z,109
2022-08-11T21:25:09.832Z,108
2022-08-11T21:26:24.052Z,113
2022-08-11T21:27:44.201Z,108
2022-08-11T21:28:53.394Z,105
2022-08-11T21:30:02.649Z,102
2022-08-11T21:31:14.195Z,99
2022-08-11T21:32:30.737Z,99
2022-08-11T21:33:49.937Z,94
2022-08-11T21:34:59.088Z,85
2022-08-11T21:36:25.481Z,88
2022-08-11T21:37:35.787Z,80
2022-08-11T21:39:00.016Z,74
2022-08-11T21:40:10.704Z,73
2022-08-11T21:41:30.360Z,81
2022-08-11T21:42:39.831Z,74
2022-08-11T21:43:48.932Z,71
2022-08-11T21:45:03.240Z,67
2022-08-11T21:46:17.243Z,62
2022-08-11T21:47:42.713Z,66
2022-08-11T21:48:36.980Z,73
2022-08-11T21:49:46.152Z,69
2022-08-11T21:51:01.157Z,72
2022-08-11T21:52:10.543Z,70
2022-08-11T21:53:21.888Z,63
2022-08-11T21:54:45.179Z,63
2022-08-11T21:56:00.387Z,59
2022-08-11T21:57:23.156Z,62
2022-08-11T21:58:32.312Z,70
2022-08-11T22:01:43.016Z,64
2022-08-11T22:03:22.231Z,58
2022-08-11T22:04:31.776Z,54
2022-08-11T22:06:06.076Z,63
2022-08-11T22:07:19.917Z,58
2022-08-11T22:08:39.212Z,55
2022-08-11T22:09:48.556Z,62
2022-08-11T22:10:57.836Z,65
2022-08-11T22:12:29.136Z,58
2022-08-11T22:13:16.608Z,57
2022-08-11T22:14:26.271Z,63
2022-08-11T22:15:45.816Z,64
2022-08-11T22:17:06.592Z,58
2022-08-11T22:18:15.859Z,58
2022-08-11T22:19:50.208Z,61
2022-08-11T22:20:59.765Z,57
2022-08-11T22:22:09.258Z,52
2022-08-11T22:23:18.436Z,57
2022-08-11T22:24:29.756Z,54
2022-08-11T22:25:38.268Z,52
2022-08-11T22:26:47.423Z,52
2022-08-11T22:28:15.720Z,49
2022-08-11T22:29:38.360Z,48
2022-08-11T22:30:49.344Z,48
2022-08-11T22:31:58.710Z,43
2022-08-11T22:33:08.256Z,41
2022-08-11T22:34:25.736Z,44
2022-08-11T22:35:37.057Z,46
2022-08-11T22:36:46.120Z,48
2022-08-11T22:37:55.492Z,51
2022-08-11T22:39:05.644Z,55
2022-08-11T22:40:15.233Z,55
2022-08-11T22:41:28.508Z,52
2022-08-11T22:42:42.713Z,57
2022-08-11T22:44:01.892Z,65
2022-08-11T22:45:23.324Z,74
2022-08-11T22:46:33.628Z,88
2022-08-11T22:47:44.256Z,87
2022-08-11T22:50:48.224Z,81
2022-08-11T22:51:57.545Z,87
2022-08-11T22:55:03.128Z,89
2022-08-11T22:56:14.408Z,88
2022-08-11T22:57:23.700Z,84
2022-08-11T22:58:52.920Z,87
2022-08-11T23:00:05.433Z,82
2022-08-11T23:01:15.186Z,84
2022-08-11T23:02:24.608Z,82
2022-08-11T23:03:38.040Z,87